sensor_id;sensor_type;location;lat;lon;timestamp;P1;durP1;ratioP1;P2;durP2;ratioP2
13799;SDS011;6971;50.028;9.258;2024-02-26T00:04:57;2.90;;;1.30;;
13799;SDS011;6971;50.028;9.258;2024-02-26T00:09:57;1.63;;;1.33;;
13799;SDS011;6971;50.028;9.258;2024-02-26T00:14:58;1.67;;;1.20;;
13799;SDS011;6971;50.028;9.258;2024-02-26T00:19:58;2.37;;;1.60;;
13799;SDS011;6971;50.028;9.258;2024-02-26T00:24:58;2.53;;;1.43;;
13799;SDS011;6971;50.028;9.258;2024-02-26T00:29:59;1.43;;;1.33;;
13799;SDS011;6971;50.028;9.258;2024-02-26T00:34:59;1.90;;;1.40;;
13799;SDS011;6971;50.028;9.258;2024-02-26T00:39:59;3.37;;;1.83;;
13799;SDS011;6971;50.028;9.258;2024-02-26T00:45:00;3.83;;;1.90;;
13799;SDS011;6971;50.028;9.258;2024-02-26T00:50:00;2.20;;;1.60;;
13799;SDS011;6971;50.028;9.258;2024-02-26T00:55:02;3.30;;;2.07;;
13799;SDS011;6971;50.028;9.258;2024-02-26T01:00:02;2.73;;;1.53;;
13799;SDS011;6971;50.028;9.258;2024-02-26T01:05:03;3.63;;;1.67;;
13799;SDS011;6971;50.028;9.258;2024-02-26T01:10:06;3.77;;;1.93;;
13799;SDS011;6971;50.028;9.258;2024-02-26T01:15:07;3.57;;;2.10;;
13799;SDS011;6971;50.028;9.258;2024-02-26T01:20:08;2.47;;;1.87;;
13799;SDS011;6971;50.028;9.258;2024-02-26T01:25:09;2.30;;;1.80;;
13799;SDS011;6971;50.028;9.258;2024-02-26T01:30:10;2.33;;;1.80;;
13799;SDS011;6971;50.028;9.258;2024-02-26T01:35:10;2.63;;;1.47;;
13799;SDS011;6971;50.028;9.258;2024-02-26T01:40:12;4.40;;;2.30;;
13799;SDS011;6971;50.028;9.258;2024-02-26T01:45:13;2.37;;;1.73;;
13799;SDS011;6971;50.028;9.258;2024-02-26T01:50:21;1.77;;;1.67;;
13799;SDS011;6971;50.028;9.258;2024-02-26T01:55:22;2.00;;;1.63;;
13799;SDS011;6971;50.028;9.258;2024-02-26T02:00:24;1.60;;;1.50;;
13799;SDS011;6971;50.028;9.258;2024-02-26T02:05:25;2.80;;;1.70;;
13799;SDS011;6971;50.028;9.258;2024-02-26T02:10:26;3.60;;;1.87;;
13799;SDS011;6971;50.028;9.258;2024-02-26T02:15:26;4.17;;;2.00;;
13799;SDS011;6971;50.028;9.258;2024-02-26T02:20:33;2.10;;;1.40;;
13799;SDS011;6971;50.028;9.258;2024-02-26T02:25:34;3.07;;;1.57;;
13799;SDS011;6971;50.028;9.258;2024-02-26T02:30:34;2.40;;;1.50;;
13799;SDS011;6971;50.028;9.258;2024-02-26T02:35:36;4.23;;;1.93;;
13799;SDS011;6971;50.028;9.258;2024-02-26T02:40:36;4.27;;;2.03;;
13799;SDS011;6971;50.028;9.258;2024-02-26T02:45:36;2.57;;;1.87;;
13799;SDS011;6971;50.028;9.258;2024-02-26T02:50:37;3.90;;;1.50;;
13799;SDS011;6971;50.028;9.258;2024-02-26T02:55:37;2.43;;;1.50;;
13799;SDS011;6971;50.028;9.258;2024-02-26T03:00:38;2.20;;;1.30;;
13799;SDS011;6971;50.028;9.258;2024-02-26T03:05:38;1.83;;;1.27;;
13799;SDS011;6971;50.028;9.258;2024-02-26T03:10:38;2.47;;;1.60;;
13799;SDS011;6971;50.028;9.258;2024-02-26T03:15:39;1.77;;;1.20;;
13799;SDS011;6971;50.028;9.258;2024-02-26T03:20:39;2.87;;;1.30;;
13799;SDS011;6971;50.028;9.258;2024-02-26T03:25:41;4.17;;;1.60;;
13799;SDS011;6971;50.028;9.258;2024-02-26T03:30:42;3.07;;;1.60;;
13799;SDS011;6971;50.028;9.258;2024-02-26T03:35:42;3.83;;;2.00;;
13799;SDS011;6971;50.028;9.258;2024-02-26T03:40:43;1.80;;;1.30;;
13799;SDS011;6971;50.028;9.258;2024-02-26T03:45:43;4.03;;;1.83;;
13799;SDS011;6971;50.028;9.258;2024-02-26T03:50:43;2.20;;;1.50;;
13799;SDS011;6971;50.028;9.258;2024-02-26T03:55:44;2.27;;;1.83;;
13799;SDS011;6971;50.028;9.258;2024-02-26T04:00:44;2.40;;;1.50;;
13799;SDS011;6971;50.028;9.258;2024-02-26T04:05:44;2.40;;;1.40;;
13799;SDS011;6971;50.028;9.258;2024-02-26T04:10:45;5.33;;;1.97;;
13799;SDS011;6971;50.028;9.258;2024-02-26T04:15:45;2.30;;;1.63;;
13799;SDS011;6971;50.028;9.258;2024-02-26T04:20:46;2.47;;;1.70;;
13799;SDS011;6971;50.028;9.258;2024-02-26T04:25:47;2.03;;;1.73;;
13799;SDS011;6971;50.028;9.258;2024-02-26T04:30:48;2.53;;;1.47;;
13799;SDS011;6971;50.028;9.258;2024-02-26T04:35:48;2.13;;;1.03;;
13799;SDS011;6971;50.028;9.258;2024-02-26T04:40:48;2.30;;;1.50;;
13799;SDS011;6971;50.028;9.258;2024-02-26T04:45:49;1.77;;;1.40;;
13799;SDS011;6971;50.028;9.258;2024-02-26T04:50:49;2.37;;;1.43;;
13799;SDS011;6971;50.028;9.258;2024-02-26T04:55:50;4.23;;;1.63;;
13799;SDS011;6971;50.028;9.258;2024-02-26T05:00:50;2.07;;;1.40;;
13799;SDS011;6971;50.028;9.258;2024-02-26T05:05:50;5.10;;;1.80;;
13799;SDS011;6971;50.028;9.258;2024-02-26T05:10:51;2.53;;;1.53;;
13799;SDS011;6971;50.028;9.258;2024-02-26T05:15:51;4.67;;;2.30;;
13799;SDS011;6971;50.028;9.258;2024-02-26T05:20:52;2.50;;;2.07;;
13799;SDS011;6971;50.028;9.258;2024-02-26T05:25:52;4.53;;;2.50;;
13799;SDS011;6971;50.028;9.258;2024-02-26T05:30:53;3.60;;;2.00;;
13799;SDS011;6971;50.028;9.258;2024-02-26T05:35:53;4.13;;;1.93;;
13799;SDS011;6971;50.028;9.258;2024-02-26T05:40:53;3.17;;;2.10;;
13799;SDS011;6971;50.028;9.258;2024-02-26T05:45:54;5.33;;;2.00;;
13799;SDS011;6971;50.028;9.258;2024-02-26T05:50:54;3.97;;;1.70;;
13799;SDS011;6971;50.028;9.258;2024-02-26T05:55:54;3.37;;;2.30;;
13799;SDS011;6971;50.028;9.258;2024-02-26T06:00:55;3.43;;;2.43;;
13799;SDS011;6971;50.028;9.258;2024-02-26T06:05:55;3.17;;;2.00;;
13799;SDS011;6971;50.028;9.258;2024-02-26T06:10:56;2.80;;;1.87;;
13799;SDS011;6971;50.028;9.258;2024-02-26T06:15:56;3.00;;;2.20;;
13799;SDS011;6971;50.028;9.258;2024-02-26T06:20:57;6.10;;;2.43;;
13799;SDS011;6971;50.028;9.258;2024-02-26T06:25:57;3.60;;;2.30;;
13799;SDS011;6971;50.028;9.258;2024-02-26T06:30:57;6.43;;;2.87;;
13799;SDS011;6971;50.028;9.258;2024-02-26T06:35:58;2.10;;;1.87;;
13799;SDS011;6971;50.028;9.258;2024-02-26T06:40:59;3.47;;;2.40;;
13799;SDS011;6971;50.028;9.258;2024-02-26T06:45:59;4.37;;;2.50;;
13799;SDS011;6971;50.028;9.258;2024-02-26T06:50:59;5.17;;;2.77;;
13799;SDS011;6971;50.028;9.258;2024-02-26T06:56:00;5.73;;;3.43;;
13799;SDS011;6971;50.028;9.258;2024-02-26T07:01:00;5.23;;;3.30;;
13799;SDS011;6971;50.028;9.258;2024-02-26T07:06:00;7.30;;;3.10;;
13799;SDS011;6971;50.028;9.258;2024-02-26T07:11:02;6.03;;;3.10;;
13799;SDS011;6971;50.028;9.258;2024-02-26T07:16:02;5.70;;;3.17;;
13799;SDS011;6971;50.028;9.258;2024-02-26T07:21:03;16.13;;;7.10;;
13799;SDS011;6971;50.028;9.258;2024-02-26T07:26:04;8.27;;;3.90;;
13799;SDS011;6971;50.028;9.258;2024-02-26T07:31:04;10.40;;;3.47;;
13799;SDS011;6971;50.028;9.258;2024-02-26T07:36:05;6.37;;;3.90;;
13799;SDS011;6971;50.028;9.258;2024-02-26T07:41:05;7.33;;;3.77;;
13799;SDS011;6971;50.028;9.258;2024-02-26T07:46:05;8.13;;;3.30;;
13799;SDS011;6971;50.028;9.258;2024-02-26T07:51:06;5.83;;;3.90;;
13799;SDS011;6971;50.028;9.258;2024-02-26T07:56:07;3.83;;;2.73;;
13799;SDS011;6971;50.028;9.258;2024-02-26T08:01:07;3.53;;;2.37;;
13799;SDS011;6971;50.028;9.258;2024-02-26T08:06:08;6.37;;;4.33;;
13799;SDS011;6971;50.028;9.258;2024-02-26T08:11:08;2.97;;;2.50;;
13799;SDS011;6971;50.028;9.258;2024-02-26T08:16:09;4.13;;;2.40;;
13799;SDS011;6971;50.028;9.258;2024-02-26T08:21:09;4.17;;;2.90;;
13799;SDS011;6971;50.028;9.258;2024-02-26T08:26:11;4.40;;;2.50;;
13799;SDS011;6971;50.028;9.258;2024-02-26T08:31:11;5.43;;;2.93;;
13799;SDS011;6971;50.028;9.258;2024-02-26T08:36:12;5.17;;;3.30;;
13799;SDS011;6971;50.028;9.258;2024-02-26T08:41:13;3.77;;;2.40;;
13799;SDS011;6971;50.028;9.258;2024-02-26T08:46:13;4.63;;;2.80;;
13799;SDS011;6971;50.028;9.258;2024-02-26T08:51:13;4.87;;;2.60;;
13799;SDS011;6971;50.028;9.258;2024-02-26T08:56:14;6.37;;;4.33;;
13799;SDS011;6971;50.028;9.258;2024-02-26T09:01:17;5.53;;;2.77;;
13799;SDS011;6971;50.028;9.258;2024-02-26T09:06:17;4.63;;;3.30;;
13799;SDS011;6971;50.028;9.258;2024-02-26T09:11:17;5.90;;;3.30;;
13799;SDS011;6971;50.028;9.258;2024-02-26T09:16:18;4.43;;;3.20;;
13799;SDS011;6971;50.028;9.258;2024-02-26T09:21:18;5.97;;;3.80;;
13799;SDS011;6971;50.028;9.258;2024-02-26T09:26:23;5.17;;;3.60;;
13799;SDS011;6971;50.028;9.258;2024-02-26T09:31:23;10.03;;;4.43;;
13799;SDS011;6971;50.028;9.258;2024-02-26T09:36:23;5.73;;;4.13;;
13799;SDS011;6971;50.028;9.258;2024-02-26T09:41:24;5.50;;;3.17;;
13799;SDS011;6971;50.028;9.258;2024-02-26T09:46:32;9.73;;;4.33;;
13799;SDS011;6971;50.028;9.258;2024-02-26T09:51:33;5.83;;;4.07;;
13799;SDS011;6971;50.028;9.258;2024-02-26T09:56:34;4.17;;;3.50;;
13799;SDS011;6971;50.028;9.258;2024-02-26T10:01:35;5.83;;;3.50;;
13799;SDS011;6971;50.028;9.258;2024-02-26T10:06:36;6.33;;;3.63;;
13799;SDS011;6971;50.028;9.258;2024-02-26T10:11:37;6.47;;;4.13;;
13799;SDS011;6971;50.028;9.258;2024-02-26T10:16:38;13.97;;;6.53;;
13799;SDS011;6971;50.028;9.258;2024-02-26T10:21:39;6.47;;;4.67;;
13799;SDS011;6971;50.028;9.258;2024-02-26T10:26:45;6.30;;;4.10;;
13799;SDS011;6971;50.028;9.258;2024-02-26T10:31:46;8.37;;;5.03;;
13799;SDS011;6971;50.028;9.258;2024-02-26T10:36:46;7.10;;;4.63;;
13799;SDS011;6971;50.028;9.258;2024-02-26T10:41:47;8.17;;;3.63;;
13799;SDS011;6971;50.028;9.258;2024-02-26T10:46:47;8.23;;;4.57;;
13799;SDS011;6971;50.028;9.258;2024-02-26T10:51:55;8.00;;;3.90;;
13799;SDS011;6971;50.028;9.258;2024-02-26T10:56:59;7.30;;;4.10;;
13799;SDS011;6971;50.028;9.258;2024-02-26T11:02:01;10.83;;;5.07;;
13799;SDS011;6971;50.028;9.258;2024-02-26T11:07:02;6.83;;;3.47;;
13799;SDS011;6971;50.028;9.258;2024-02-26T11:12:04;7.00;;;4.53;;
13799;SDS011;6971;50.028;9.258;2024-02-26T11:17:10;5.70;;;3.70;;
13799;SDS011;6971;50.028;9.258;2024-02-26T11:22:11;5.50;;;3.50;;
13799;SDS011;6971;50.028;9.258;2024-02-26T11:27:11;4.87;;;3.10;;
13799;SDS011;6971;50.028;9.258;2024-02-26T11:32:12;5.07;;;3.17;;
13799;SDS011;6971;50.028;9.258;2024-02-26T11:37:13;5.37;;;3.30;;
13799;SDS011;6971;50.028;9.258;2024-02-26T11:42:15;5.33;;;3.17;;
13799;SDS011;6971;50.028;9.258;2024-02-26T11:47:20;4.93;;;2.97;;
13799;SDS011;6971;50.028;9.258;2024-02-26T11:52:21;5.83;;;3.30;;
13799;SDS011;6971;50.028;9.258;2024-02-26T11:57:29;5.33;;;2.60;;
13799;SDS011;6971;50.028;9.258;2024-02-26T12:07:46;8.00;;;3.03;;
13799;SDS011;6971;50.028;9.258;2024-02-26T12:12:49;5.63;;;3.30;;
13799;SDS011;6971;50.028;9.258;2024-02-26T12:17:52;5.90;;;3.03;;
13799;SDS011;6971;50.028;9.258;2024-02-26T12:22:53;7.90;;;5.20;;
13799;SDS011;6971;50.028;9.258;2024-02-26T12:27:55;9.10;;;4.20;;
13799;SDS011;6971;50.028;9.258;2024-02-26T12:32:56;11.60;;;6.27;;
13799;SDS011;6971;50.028;9.258;2024-02-26T12:37:57;4.23;;;2.70;;
13799;SDS011;6971;50.028;9.258;2024-02-26T12:42:58;8.87;;;4.57;;
13799;SDS011;6971;50.028;9.258;2024-02-26T12:47:58;4.17;;;2.83;;
13799;SDS011;6971;50.028;9.258;2024-02-26T12:52:59;4.20;;;2.33;;
13799;SDS011;6971;50.028;9.258;2024-02-26T12:57:59;3.97;;;3.20;;
13799;SDS011;6971;50.028;9.258;2024-02-26T13:03:00;4.17;;;3.03;;
13799;SDS011;6971;50.028;9.258;2024-02-26T13:08:01;2.80;;;2.27;;
13799;SDS011;6971;50.028;9.258;2024-02-26T13:13:02;4.30;;;2.83;;
13799;SDS011;6971;50.028;9.258;2024-02-26T13:18:09;2.50;;;2.23;;
13799;SDS011;6971;50.028;9.258;2024-02-26T13:23:13;2.87;;;2.37;;
13799;SDS011;6971;50.028;9.258;2024-02-26T13:28:18;3.33;;;2.33;;
13799;SDS011;6971;50.028;9.258;2024-02-26T13:33:19;3.50;;;1.70;;
13799;SDS011;6971;50.028;9.258;2024-02-26T13:38:21;4.17;;;2.43;;
13799;SDS011;6971;50.028;9.258;2024-02-26T13:43:22;4.00;;;2.40;;
13799;SDS011;6971;50.028;9.258;2024-02-26T13:48:22;5.20;;;2.77;;
13799;SDS011;6971;50.028;9.258;2024-02-26T13:53:22;3.63;;;2.07;;
13799;SDS011;6971;50.028;9.258;2024-02-26T13:58:24;4.37;;;2.10;;
13799;SDS011;6971;50.028;9.258;2024-02-26T14:03:25;2.90;;;1.90;;
13799;SDS011;6971;50.028;9.258;2024-02-26T14:08:26;2.63;;;1.93;;
13799;SDS011;6971;50.028;9.258;2024-02-26T14:13:26;3.10;;;1.90;;
13799;SDS011;6971;50.028;9.258;2024-02-26T14:18:27;2.93;;;1.93;;
13799;SDS011;6971;50.028;9.258;2024-02-26T14:23:27;3.27;;;2.07;;
13799;SDS011;6971;50.028;9.258;2024-02-26T14:28:27;2.50;;;1.93;;
13799;SDS011;6971;50.028;9.258;2024-02-26T14:33:29;3.00;;;2.17;;
13799;SDS011;6971;50.028;9.258;2024-02-26T14:38:29;4.90;;;2.60;;
13799;SDS011;6971;50.028;9.258;2024-02-26T14:43:30;3.13;;;2.40;;
13799;SDS011;6971;50.028;9.258;2024-02-26T14:48:31;2.97;;;2.30;;
13799;SDS011;6971;50.028;9.258;2024-02-26T14:53:32;3.30;;;1.90;;
13799;SDS011;6971;50.028;9.258;2024-02-26T14:58:32;2.60;;;1.90;;
13799;SDS011;6971;50.028;9.258;2024-02-26T15:03:33;2.63;;;2.07;;
13799;SDS011;6971;50.028;9.258;2024-02-26T15:08:33;4.90;;;3.17;;
13799;SDS011;6971;50.028;9.258;2024-02-26T15:13:34;6.67;;;4.90;;
13799;SDS011;6971;50.028;9.258;2024-02-26T15:18:36;3.70;;;3.00;;
13799;SDS011;6971;50.028;9.258;2024-02-26T15:23:37;2.77;;;2.00;;
13799;SDS011;6971;50.028;9.258;2024-02-26T15:28:37;2.97;;;2.33;;
13799;SDS011;6971;50.028;9.258;2024-02-26T15:33:38;2.63;;;2.10;;
13799;SDS011;6971;50.028;9.258;2024-02-26T15:38:38;2.67;;;1.83;;
13799;SDS011;6971;50.028;9.258;2024-02-26T15:43:40;3.67;;;2.67;;
13799;SDS011;6971;50.028;9.258;2024-02-26T15:48:40;3.07;;;2.07;;
13799;SDS011;6971;50.028;9.258;2024-02-26T15:53:41;3.13;;;2.70;;
13799;SDS011;6971;50.028;9.258;2024-02-26T15:58:41;13.17;;;9.07;;
13799;SDS011;6971;50.028;9.258;2024-02-26T16:03:41;5.17;;;3.10;;
13799;SDS011;6971;50.028;9.258;2024-02-26T16:08:42;3.80;;;2.50;;
13799;SDS011;6971;50.028;9.258;2024-02-26T16:13:42;6.83;;;3.13;;
13799;SDS011;6971;50.028;9.258;2024-02-26T16:18:43;6.13;;;2.60;;
13799;SDS011;6971;50.028;9.258;2024-02-26T16:23:43;4.90;;;2.83;;
13799;SDS011;6971;50.028;9.258;2024-02-26T16:28:44;4.20;;;2.33;;
13799;SDS011;6971;50.028;9.258;2024-02-26T16:33:44;5.03;;;2.57;;
13799;SDS011;6971;50.028;9.258;2024-02-26T16:38:44;4.30;;;2.93;;
13799;SDS011;6971;50.028;9.258;2024-02-26T16:43:45;3.40;;;2.43;;
13799;SDS011;6971;50.028;9.258;2024-02-26T16:48:45;4.00;;;3.03;;
13799;SDS011;6971;50.028;9.258;2024-02-26T16:53:48;5.47;;;3.57;;
13799;SDS011;6971;50.028;9.258;2024-02-26T16:58:48;6.93;;;4.70;;
13799;SDS011;6971;50.028;9.258;2024-02-26T17:03:49;6.27;;;3.90;;
13799;SDS011;6971;50.028;9.258;2024-02-26T17:08:49;7.90;;;4.87;;
13799;SDS011;6971;50.028;9.258;2024-02-26T17:13:52;8.67;;;5.47;;
13799;SDS011;6971;50.028;9.258;2024-02-26T17:18:52;7.97;;;4.60;;
13799;SDS011;6971;50.028;9.258;2024-02-26T17:23:53;3.80;;;3.37;;
13799;SDS011;6971;50.028;9.258;2024-02-26T17:28:53;6.33;;;3.57;;
13799;SDS011;6971;50.028;9.258;2024-02-26T17:33:57;6.43;;;4.27;;
13799;SDS011;6971;50.028;9.258;2024-02-26T17:38:57;4.43;;;3.07;;
13799;SDS011;6971;50.028;9.258;2024-02-26T17:43:57;5.23;;;3.00;;
13799;SDS011;6971;50.028;9.258;2024-02-26T17:48:58;4.20;;;2.80;;
13799;SDS011;6971;50.028;9.258;2024-02-26T17:53:58;6.33;;;4.40;;
13799;SDS011;6971;50.028;9.258;2024-02-26T17:58:58;8.33;;;4.00;;
13799;SDS011;6971;50.028;9.258;2024-02-26T18:03:59;7.47;;;3.47;;
13799;SDS011;6971;50.028;9.258;2024-02-26T18:08:59;4.63;;;2.47;;
13799;SDS011;6971;50.028;9.258;2024-02-26T18:14:00;3.53;;;1.97;;
13799;SDS011;6971;50.028;9.258;2024-02-26T18:19:00;2.30;;;2.03;;
13799;SDS011;6971;50.028;9.258;2024-02-26T18:24:00;2.80;;;2.17;;
13799;SDS011;6971;50.028;9.258;2024-02-26T18:29:01;2.97;;;2.23;;
13799;SDS011;6971;50.028;9.258;2024-02-26T18:34:01;4.27;;;2.80;;
13799;SDS011;6971;50.028;9.258;2024-02-26T18:39:02;3.90;;;2.60;;
13799;SDS011;6971;50.028;9.258;2024-02-26T18:44:04;6.07;;;4.33;;
13799;SDS011;6971;50.028;9.258;2024-02-26T18:49:04;4.93;;;4.43;;
13799;SDS011;6971;50.028;9.258;2024-02-26T18:54:05;4.93;;;4.00;;
13799;SDS011;6971;50.028;9.258;2024-02-26T18:59:05;6.20;;;4.20;;
13799;SDS011;6971;50.028;9.258;2024-02-26T19:04:08;6.33;;;3.80;;
13799;SDS011;6971;50.028;9.258;2024-02-26T19:09:09;7.40;;;4.03;;
13799;SDS011;6971;50.028;9.258;2024-02-26T19:14:09;7.07;;;5.23;;
13799;SDS011;6971;50.028;9.258;2024-02-26T19:19:10;4.50;;;3.10;;
13799;SDS011;6971;50.028;9.258;2024-02-26T19:24:10;8.30;;;4.73;;
13799;SDS011;6971;50.028;9.258;2024-02-26T19:29:12;3.50;;;3.20;;
13799;SDS011;6971;50.028;9.258;2024-02-26T19:34:12;4.37;;;2.67;;
13799;SDS011;6971;50.028;9.258;2024-02-26T19:39:12;3.53;;;2.47;;
13799;SDS011;6971;50.028;9.258;2024-02-26T19:44:13;3.30;;;2.37;;
13799;SDS011;6971;50.028;9.258;2024-02-26T19:49:13;2.60;;;2.13;;
13799;SDS011;6971;50.028;9.258;2024-02-26T19:54:14;10.77;;;8.10;;
13799;SDS011;6971;50.028;9.258;2024-02-26T19:59:14;6.10;;;2.80;;
13799;SDS011;6971;50.028;9.258;2024-02-26T20:04:14;4.73;;;3.43;;
13799;SDS011;6971;50.028;9.258;2024-02-26T20:09:16;4.00;;;2.70;;
13799;SDS011;6971;50.028;9.258;2024-02-26T20:14:17;4.17;;;2.80;;
13799;SDS011;6971;50.028;9.258;2024-02-26T20:19:18;5.40;;;2.77;;
13799;SDS011;6971;50.028;9.258;2024-02-26T20:24:18;5.47;;;3.40;;
13799;SDS011;6971;50.028;9.258;2024-02-26T20:29:18;4.63;;;2.80;;
13799;SDS011;6971;50.028;9.258;2024-02-26T20:34:19;3.97;;;2.77;;
13799;SDS011;6971;50.028;9.258;2024-02-26T20:39:19;5.47;;;3.20;;
13799;SDS011;6971;50.028;9.258;2024-02-26T20:44:19;3.33;;;2.53;;
13799;SDS011;6971;50.028;9.258;2024-02-26T20:49:20;4.90;;;3.10;;
13799;SDS011;6971;50.028;9.258;2024-02-26T20:54:21;9.77;;;5.40;;
13799;SDS011;6971;50.028;9.258;2024-02-26T20:59:21;7.47;;;4.53;;
13799;SDS011;6971;50.028;9.258;2024-02-26T21:04:21;8.33;;;3.00;;
13799;SDS011;6971;50.028;9.258;2024-02-26T21:09:22;7.90;;;4.07;;
13799;SDS011;6971;50.028;9.258;2024-02-26T21:14:22;5.30;;;3.53;;
13799;SDS011;6971;50.028;9.258;2024-02-26T21:19:22;8.00;;;4.47;;
13799;SDS011;6971;50.028;9.258;2024-02-26T21:24:23;6.67;;;3.70;;
13799;SDS011;6971;50.028;9.258;2024-02-26T21:29:23;7.97;;;4.77;;
13799;SDS011;6971;50.028;9.258;2024-02-26T21:34:24;4.93;;;3.77;;
13799;SDS011;6971;50.028;9.258;2024-02-26T21:39:24;6.83;;;4.47;;
13799;SDS011;6971;50.028;9.258;2024-02-26T21:44:24;7.93;;;4.37;;
13799;SDS011;6971;50.028;9.258;2024-02-26T21:49:25;5.93;;;3.97;;
13799;SDS011;6971;50.028;9.258;2024-02-26T21:54:25;5.80;;;3.83;;
13799;SDS011;6971;50.028;9.258;2024-02-26T21:59:26;7.13;;;4.10;;
13799;SDS011;6971;50.028;9.258;2024-02-26T22:04:27;7.13;;;3.97;;
13799;SDS011;6971;50.028;9.258;2024-02-26T22:09:27;5.87;;;4.17;;
13799;SDS011;6971;50.028;9.258;2024-02-26T22:14:28;6.00;;;4.00;;
13799;SDS011;6971;50.028;9.258;2024-02-26T22:19:28;5.80;;;3.67;;
13799;SDS011;6971;50.028;9.258;2024-02-26T22:24:29;7.10;;;3.90;;
13799;SDS011;6971;50.028;9.258;2024-02-26T22:29:29;8.03;;;4.37;;
13799;SDS011;6971;50.028;9.258;2024-02-26T22:34:29;12.73;;;4.13;;
13799;SDS011;6971;50.028;9.258;2024-02-26T22:39:30;9.87;;;4.70;;
13799;SDS011;6971;50.028;9.258;2024-02-26T22:44:30;7.30;;;4.67;;
13799;SDS011;6971;50.028;9.258;2024-02-26T22:49:30;18.13;;;8.53;;
13799;SDS011;6971;50.028;9.258;2024-02-26T22:54:32;9.83;;;6.30;;
13799;SDS011;6971;50.028;9.258;2024-02-26T22:59:32;12.07;;;6.67;;
13799;SDS011;6971;50.028;9.258;2024-02-26T23:04:32;13.33;;;7.40;;
13799;SDS011;6971;50.028;9.258;2024-02-26T23:09:33;15.17;;;7.33;;
13799;SDS011;6971;50.028;9.258;2024-02-26T23:14:34;10.70;;;7.20;;
13799;SDS011;6971;50.028;9.258;2024-02-26T23:19:35;12.87;;;8.30;;
13799;SDS011;6971;50.028;9.258;2024-02-26T23:24:36;13.03;;;7.37;;
13799;SDS011;6971;50.028;9.258;2024-02-26T23:29:36;14.20;;;7.17;;
13799;SDS011;6971;50.028;9.258;2024-02-26T23:34:37;14.90;;;7.63;;
13799;SDS011;6971;50.028;9.258;2024-02-26T23:39:37;9.63;;;6.67;;
13799;SDS011;6971;50.028;9.258;2024-02-26T23:44:37;14.40;;;7.20;;
13799;SDS011;6971;50.028;9.258;2024-02-26T23:49:39;14.83;;;7.87;;
13799;SDS011;6971;50.028;9.258;2024-02-26T23:54:39;9.93;;;6.10;;
13799;SDS011;6971;50.028;9.258;2024-02-26T23:59:40;11.03;;;7.07;;
